Time;durP1;ratioP1;P1;durP2;ratioP2;P2;SDS_P1;SDS_P2;PMS_P1;PMS_P2;Temp;Humidity;BMP_temperature;BMP_pressure;BME280_temperature;BME280_humidity;BME280_pressure;Samples;Min_cycle;Max_cycle;Signal;HPM_P1;HPM_P2
2023/09/19 00:00:33;;;;;;;10.30;2.03;;;;;;;;;;5062331;28;20136;-56
2023/09/19 00:03:01;;;;;;;12.27;3.55;;;;;;;;;;5062864;28;20053;-55
2023/09/19 00:05:28;;;;;;;9.25;1.98;;;;;;;;;;5062245;28;20567;-56
2023/09/19 00:07:59;;;;;;;7.07;1.88;;;;;;;;;;5061733;28;20041;-58
2023/09/19 00:10:26;;;;;;;8.15;1.90;;;;;;;;;;5062631;28;20053;-57
2023/09/19 00:12:56;;;;;;;5.78;2.17;;;;;;;;;;5062411;28;20103;-57
2023/09/19 00:15:23;;;;;;;7.95;1.60;;;;;;;;;;5062460;28;20541;-57
2023/09/19 00:17:52;;;;;;;7.35;1.98;;;;;;;;;;5061991;28;20049;-55
2023/09/19 00:20:18;;;;;;;7.07;2.00;;;;;;;;;;5062095;28;20053;-57
2023/09/19 00:22:45;;;;;;;5.03;1.38;;;;;;;;;;5062370;28;20045;-58
2023/09/19 00:25:12;;;;;;;4.78;1.98;;;;;;;;;;5061569;28;20168;-55
2023/09/19 00:27:42;;;;;;;5.45;1.42;;;;;;;;;;5061654;28;20128;-55
2023/09/19 00:30:19;;;;;;;6.18;1.52;;;;;;;;;;5061094;28;20095;-55
2023/09/19 00:32:52;;;;;;;9.85;2.10;;;;;;;;;;5061732;28;20649;-57
2023/09/19 00:35:23;;;;;;;6.90;1.52;;;;;;;;;;5061277;28;20135;-57
2023/09/19 00:37:53;;;;;;;6.65;2.47;;;;;;;;;;5061850;28;20057;-56
2023/09/19 00:40:21;;;;;;;8.10;1.50;;;;;;;;;;5062461;28;20057;-56
2023/09/19 00:42:48;;;;;;;5.57;1.65;;;;;;;;;;5062158;28;20085;-56
2023/09/19 00:45:16;;;;;;;5.82;1.60;;;;;;;;;;5061780;28;20088;-55
2023/09/19 00:47:44;;;;;;;9.55;1.90;;;;;;;;;;5061935;28;20060;-56
2023/09/19 00:50:11;;;;;;;5.88;1.88;;;;;;;;;;5060512;28;20104;-57
2023/09/19 00:52:42;;;;;;;8.00;2.78;;;;;;;;;;5063309;28;20057;-57
2023/09/19 00:55:09;;;;;;;5.55;1.88;;;;;;;;;;5065664;28;20111;-55
2023/09/19 00:57:38;;;;;;;10.18;1.70;;;;;;;;;;5065662;28;20503;-55
2023/09/19 01:00:07;;;;;;;5.32;1.38;;;;;;;;;;5065000;28;20175;-56
2023/09/19 01:02:35;;;;;;;8.93;2.17;;;;;;;;;;5064950;28;20140;-55
2023/09/19 01:05:04;;;;;;;6.35;1.50;;;;;;;;;;5063809;28;20563;-57
2023/09/19 01:07:33;;;;;;;5.13;1.52;;;;;;;;;;5066000;28;20053;-56
2023/09/19 01:10:00;;;;;;;9.60;1.85;;;;;;;;;;5064893;28;20080;-57
2023/09/19 01:12:32;;;;;;;5.32;1.45;;;;;;;;;;5064171;28;20080;-56
2023/09/19 01:15:04;;;;;;;4.90;1.70;;;;;;;;;;5064097;28;20049;-57
2023/09/19 01:17:34;;;;;;;3.55;1.33;;;;;;;;;;5064852;28;20057;-55
2023/09/19 01:20:05;;;;;;;9.00;1.80;;;;;;;;;;5065034;28;20150;-57
2023/09/19 01:22:55;;;;;;;6.20;1.73;;;;;;;;;;5065120;28;20135;-57
2023/09/19 01:25:40;;;;;;;4.30;1.30;;;;;;;;;;5001408;28;20069;-56
2023/09/19 01:28:07;;;;;;;;;;;;;;;;;;5002795;28;20054;-57
2023/09/19 01:30:36;;;;;;;4.45;1.30;;;;;;;;;;4998384;28;45912;-56
2023/09/19 01:33:03;;;;;;;9.13;2.10;;;;;;;;;;4982786;28;20143;-57
2023/09/19 01:35:31;;;;;;;7.80;2.05;;;;;;;;;;4995146;28;20145;-56
2023/09/19 01:37:58;;;;;;;8.88;1.90;;;;;;;;;;5001689;28;20325;-57
2023/09/19 01:40:25;;;;;;;9.35;2.75;;;;;;;;;;5001556;28;20058;-57
2023/09/19 01:42:55;;;;;;;5.97;1.73;;;;;;;;;;5002390;28;20069;-57
2023/09/19 01:45:24;;;;;;;3.88;1.48;;;;;;;;;;5001578;28;20059;-56
2023/09/19 01:48:11;;;;;;;5.57;1.80;;;;;;;;;;5002112;28;20101;-57
2023/09/19 01:50:41;;;;;;;3.33;1.77;;;;;;;;;;5000127;28;20089;-56
2023/09/19 01:53:15;;;;;;;7.50;1.77;;;;;;;;;;5002171;28;20054;-57
2023/09/19 01:55:49;;;;;;;8.70;1.95;;;;;;;;;;5001386;28;20058;-57
2023/09/19 01:58:30;;;;;;;9.35;1.92;;;;;;;;;;5001209;28;20497;-58
2023/09/19 02:00:58;;;;;;;7.05;1.65;;;;;;;;;;5000919;28;20060;-57
2023/09/19 02:03:24;;;;;;;6.90;2.17;;;;;;;;;;5057049;28;20071;-57
2023/09/19 02:05:53;;;;;;;9.13;2.03;;;;;;;;;;5063987;28;20060;-55
2023/09/19 02:08:20;;;;;;;6.63;2.00;;;;;;;;;;5064539;28;20519;-56
2023/09/19 02:10:49;;;;;;;11.40;2.00;;;;;;;;;;5064028;28;20076;-56
2023/09/19 02:13:17;;;;;;;7.80;1.90;;;;;;;;;;5063953;28;20061;-56
2023/09/19 02:15:46;;;;;;;4.95;2.17;;;;;;;;;;5064936;28;20065;-53
2023/09/19 02:18:14;;;;;;;9.60;2.20;;;;;;;;;;5064527;28;20586;-57
2023/09/19 02:20:41;;;;;;;5.43;1.60;;;;;;;;;;5063767;28;20511;-57
2023/09/19 02:23:08;;;;;;;7.43;1.98;;;;;;;;;;5063600;28;20056;-58
2023/09/19 02:25:35;;;;;;;5.22;2.00;;;;;;;;;;5064455;28;20060;-57
2023/09/19 02:28:03;;;;;;;8.95;1.92;;;;;;;;;;5062661;28;20053;-56
2023/09/19 02:30:29;;;;;;;8.13;2.10;;;;;;;;;;5058673;28;20081;-57
2023/09/19 02:32:56;;;;;;;9.90;2.00;;;;;;;;;;5043314;28;20424;-56
2023/09/19 02:35:23;;;;;;;7.97;2.25;;;;;;;;;;5062128;28;20053;-55
2023/09/19 02:37:50;;;;;;;7.45;3.00;;;;;;;;;;5063610;28;20052;-57
2023/09/19 02:40:19;;;;;;;10.65;2.03;;;;;;;;;;5062868;28;20052;-57
2023/09/19 02:42:49;;;;;;;8.07;2.05;;;;;;;;;;5063193;28;20049;-57
2023/09/19 02:45:19;;;;;;;7.97;2.03;;;;;;;;;;5063764;28;20577;-57
2023/09/19 02:47:46;;;;;;;10.30;2.60;;;;;;;;;;5063223;28;20084;-55
2023/09/19 02:50:15;;;;;;;6.82;2.58;;;;;;;;;;5063147;28;20048;-58
2023/09/19 02:52:43;;;;;;;8.38;1.65;;;;;;;;;;5063753;28;20126;-56
2023/09/19 02:55:11;;;;;;;8.07;2.15;;;;;;;;;;5063989;28;20083;-56
2023/09/19 02:57:40;;;;;;;12.23;2.50;;;;;;;;;;5062885;28;20427;-58
2023/09/19 03:00:10;;;;;;;10.43;2.05;;;;;;;;;;5062570;28;20052;-56
2023/09/19 03:02:37;;;;;;;10.93;2.17;;;;;;;;;;5061353;28;20048;-56
2023/09/19 03:05:05;;;;;;;10.15;2.03;;;;;;;;;;5063684;28;20060;-55
2023/09/19 03:07:31;;;;;;;15.00;3.20;;;;;;;;;;5063118;28;20056;-57
2023/09/19 03:09:58;;;;;;;16.08;2.60;;;;;;;;;;5062858;28;20119;-55
2023/09/19 03:12:24;;;;;;;12.85;2.33;;;;;;;;;;5056755;28;20300;-58
2023/09/19 03:14:51;;;;;;;13.10;2.53;;;;;;;;;;5063045;28;20063;-57
2023/09/19 03:17:19;;;;;;;13.63;3.45;;;;;;;;;;5062860;28;20064;-58
2023/09/19 03:19:47;;;;;;;11.20;2.00;;;;;;;;;;5063528;28;20053;-58
2023/09/19 03:22:14;;;;;;;13.52;2.20;;;;;;;;;;5062045;28;20056;-57
2023/09/19 03:24:41;;;;;;;12.02;1.98;;;;;;;;;;5061371;28;20060;-58
2023/09/19 03:27:12;;;;;;;13.60;3.38;;;;;;;;;;5061703;28;20053;-58
2023/09/19 03:29:39;;;;;;;7.55;1.70;;;;;;;;;;5061839;28;20053;-57
2023/09/19 03:32:05;;;;;;;11.95;2.60;;;;;;;;;;5062671;28;20581;-57
2023/09/19 03:34:32;;;;;;;10.13;2.55;;;;;;;;;;5063286;28;20099;-57
2023/09/19 03:36:59;;;;;;;9.88;2.45;;;;;;;;;;5062086;28;20131;-57
2023/09/19 03:39:26;;;;;;;11.32;2.28;;;;;;;;;;5062781;28;20064;-59
2023/09/19 03:41:52;;;;;;;15.75;2.53;;;;;;;;;;5062346;28;20523;-56
2023/09/19 03:44:19;;;;;;;14.02;2.35;;;;;;;;;;5062481;28;20513;-57
2023/09/19 03:46:45;;;;;;;11.60;2.47;;;;;;;;;;5062822;28;20143;-57
2023/09/19 03:49:12;;;;;;;13.85;3.55;;;;;;;;;;5062233;28;20057;-54
2023/09/19 03:51:41;;;;;;;9.82;3.20;;;;;;;;;;5062886;28;20061;-55
2023/09/19 03:54:07;;;;;;;6.63;1.58;;;;;;;;;;5062489;28;20249;-58
2023/09/19 03:56:34;;;;;;;9.40;2.00;;;;;;;;;;5063011;28;20150;-57
2023/09/19 03:59:00;;;;;;;9.30;2.50;;;;;;;;;;5062567;28;20802;-57
2023/09/19 04:01:28;;;;;;;12.95;2.10;;;;;;;;;;5061183;28;20131;-57
2023/09/19 04:03:55;;;;;;;7.13;1.83;;;;;;;;;;5042806;28;20561;-58
2023/09/19 04:06:21;;;;;;;9.07;2.20;;;;;;;;;;5042811;28;20627;-56
2023/09/19 04:08:48;;;;;;;11.32;1.95;;;;;;;;;;5042079;28;20492;-55
2023/09/19 04:11:15;;;;;;;13.68;1.95;;;;;;;;;;5056025;28;20083;-58
2023/09/19 04:13:41;;;;;;;14.93;1.85;;;;;;;;;;5061719;28;20057;-56
2023/09/19 04:16:09;;;;;;;9.38;1.95;;;;;;;;;;5062571;28;20049;-58
2023/09/19 04:18:38;;;;;;;8.55;2.00;;;;;;;;;;5063083;28;20658;-56
2023/09/19 04:21:05;;;;;;;7.63;2.00;;;;;;;;;;5063045;28;20053;-56
2023/09/19 04:23:32;;;;;;;8.60;1.90;;;;;;;;;;5061234;28;20049;-56
2023/09/19 04:25:59;;;;;;;11.18;2.42;;;;;;;;;;5066835;28;20136;-56
2023/09/19 04:28:27;;;;;;;10.55;3.20;;;;;;;;;;5066052;28;20555;-56
2023/09/19 04:30:55;;;;;;;11.77;1.92;;;;;;;;;;5065951;28;20053;-57
2023/09/19 04:33:21;;;;;;;7.65;1.88;;;;;;;;;;5049844;28;20080;-55
2023/09/19 04:35:51;;;;;;;7.45;1.95;;;;;;;;;;5045245;28;20061;-56
2023/09/19 04:38:20;;;;;;;7.45;1.75;;;;;;;;;;5045108;28;20140;-57
2023/09/19 04:40:47;;;;;;;14.88;2.53;;;;;;;;;;5059273;28;20053;-56
2023/09/19 04:43:15;;;;;;;7.00;1.77;;;;;;;;;;5065202;28;20594;-57
2023/09/19 04:45:41;;;;;;;6.55;2.17;;;;;;;;;;5065741;28;20502;-56
2023/09/19 04:48:10;;;;;;;9.98;1.95;;;;;;;;;;5068583;28;20088;-58
2023/09/19 04:50:38;;;;;;;9.07;1.90;;;;;;;;;;5065703;28;20053;-55
2023/09/19 04:53:06;;;;;;;6.63;2.17;;;;;;;;;;5064695;28;20119;-57
2023/09/19 04:55:33;;;;;;;7.60;1.92;;;;;;;;;;5062460;28;20550;-55
2023/09/19 04:58:00;;;;;;;9.77;2.65;;;;;;;;;;5064571;28;20139;-56
2023/09/19 05:00:27;;;;;;;14.80;2.22;;;;;;;;;;5065434;28;20053;-56
2023/09/19 05:02:56;;;;;;;16.63;4.03;;;;;;;;;;5061166;28;20157;-57
2023/09/19 05:05:23;;;;;;;13.07;2.55;;;;;;;;;;5065476;28;20146;-57
2023/09/19 05:07:51;;;;;;;10.55;2.67;;;;;;;;;;5064985;28;20061;-55
2023/09/19 05:10:18;;;;;;;11.23;2.40;;;;;;;;;;5065187;28;20049;-57
2023/09/19 05:12:47;;;;;;;9.07;1.83;;;;;;;;;;5063296;28;20049;-57
2023/09/19 05:15:17;;;;;;;8.77;3.00;;;;;;;;;;5062924;28;20115;-56
2023/09/19 05:17:51;;;;;;;7.70;2.05;;;;;;;;;;5064132;28;20484;-57
2023/09/19 05:20:29;;;;;;;16.25;2.40;;;;;;;;;;5065070;28;20057;-55
2023/09/19 05:23:05;;;;;;;8.77;2.25;;;;;;;;;;5063071;28;20480;-54
2023/09/19 05:25:32;;;;;;;10.93;2.20;;;;;;;;;;5065144;28;20053;-57
2023/09/19 05:28:00;;;;;;;5.57;1.65;;;;;;;;;;5065049;28;20055;-57
2023/09/19 05:30:30;;;;;;;9.85;2.25;;;;;;;;;;5064826;28;20077;-57
2023/09/19 05:32:56;;;;;;;10.57;2.85;;;;;;;;;;5064340;28;20052;-55
2023/09/19 05:35:23;;;;;;;12.45;2.40;;;;;;;;;;5063848;28;20515;-57
2023/09/19 05:37:50;;;;;;;11.95;2.15;;;;;;;;;;5064908;28;20084;-55
2023/09/19 05:40:17;;;;;;;13.15;2.33;;;;;;;;;;5064515;28;20053;-56
2023/09/19 05:42:44;;;;;;;7.82;2.08;;;;;;;;;;5064039;28;20148;-55
2023/09/19 05:45:14;;;;;;;14.80;2.28;;;;;;;;;;5064814;28;20053;-55
2023/09/19 05:47:45;;;;;;;10.55;2.30;;;;;;;;;;5062822;28;20064;-58
2023/09/19 05:50:12;;;;;;;6.93;2.28;;;;;;;;;;5064142;28;20052;-57
2023/09/19 05:52:38;;;;;;;15.95;2.38;;;;;;;;;;5064943;28;20119;-56
2023/09/19 05:55:07;;;;;;;14.57;2.17;;;;;;;;;;5064750;28;20533;-55
2023/09/19 05:57:34;;;;;;;10.90;2.33;;;;;;;;;;5062533;28;20508;-57
2023/09/19 06:00:01;;;;;;;5.93;1.88;;;;;;;;;;5063602;28;20049;-57
2023/09/19 06:02:29;;;;;;;7.10;2.28;;;;;;;;;;5064176;28;20480;-59
2023/09/19 06:04:56;;;;;;;10.55;2.38;;;;;;;;;;5058830;28;20049;-52
2023/09/19 06:07:26;;;;;;;5.90;1.80;;;;;;;;;;5074250;28;20135;-58
2023/09/19 06:09:55;;;;;;;11.63;2.40;;;;;;;;;;5056896;28;20131;-56
2023/09/19 06:12:22;;;;;;;6.40;2.63;;;;;;;;;;5064145;28;20055;-56
2023/09/19 06:14:49;;;;;;;10.00;2.53;;;;;;;;;;5064493;28;20056;-55
2023/09/19 06:17:17;;;;;;;8.30;2.53;;;;;;;;;;5064263;28;20486;-57
2023/09/19 06:19:47;;;;;;;6.90;2.38;;;;;;;;;;5063201;28;20053;-57
2023/09/19 06:22:16;;;;;;;10.40;2.97;;;;;;;;;;5071296;28;20064;-57
2023/09/19 06:24:42;;;;;;;9.50;2.17;;;;;;;;;;5063591;28;20119;-58
2023/09/19 06:27:09;;;;;;;10.00;2.47;;;;;;;;;;5071038;28;20492;-56
2023/09/19 06:29:37;;;;;;;9.07;2.35;;;;;;;;;;5060111;28;20199;-55
2023/09/19 06:32:07;;;;;;;6.70;2.40;;;;;;;;;;5064018;28;20053;-57
2023/09/19 06:34:34;;;;;;;13.70;3.28;;;;;;;;;;5063755;28;20136;-56
2023/09/19 06:37:03;;;;;;;12.60;2.15;;;;;;;;;;5064235;28;20500;-57
2023/09/19 06:39:30;;;;;;;17.45;2.22;;;;;;;;;;5062357;28;20103;-56
2023/09/19 06:41:56;;;;;;;11.77;2.25;;;;;;;;;;5062242;28;20049;-53
2023/09/19 06:44:24;;;;;;;8.43;2.42;;;;;;;;;;5063002;28;20076;-55
2023/09/19 06:46:51;;;;;;;13.18;2.72;;;;;;;;;;5062248;28;20060;-56
2023/09/19 06:49:18;;;;;;;9.43;2.10;;;;;;;;;;5063194;28;20060;-56
2023/09/19 06:51:44;;;;;;;14.00;2.85;;;;;;;;;;5063794;28;20504;-54
2023/09/19 06:54:10;;;;;;;9.50;2.13;;;;;;;;;;5060368;28;20615;-55
2023/09/19 06:56:37;;;;;;;16.55;3.03;;;;;;;;;;5057823;28;20077;-56
2023/09/19 06:59:05;;;;;;;7.32;1.83;;;;;;;;;;5060124;28;20049;-57
2023/09/19 07:01:33;;;;;;;13.45;2.92;;;;;;;;;;5067348;28;20053;-56
2023/09/19 07:04:00;;;;;;;7.20;2.60;;;;;;;;;;5063163;28;20060;-56
2023/09/19 07:06:27;;;;;;;11.75;2.70;;;;;;;;;;5063456;28;20057;-54
2023/09/19 07:08:55;;;;;;;12.55;2.53;;;;;;;;;;5063452;28;20092;-55
2023/09/19 07:11:22;;;;;;;9.50;1.92;;;;;;;;;;5059019;28;20139;-57
2023/09/19 07:13:49;;;;;;;7.15;1.88;;;;;;;;;;5062348;28;20057;-56
2023/09/19 07:16:27;;;;;;;9.52;1.98;;;;;;;;;;5059793;28;20057;-56
2023/09/19 07:18:56;;;;;;;16.15;2.17;;;;;;;;;;5061598;28;20057;-56
2023/09/19 07:21:23;;;;;;;7.80;1.95;;;;;;;;;;5056037;28;20127;-57
2023/09/19 07:23:49;;;;;;;6.75;2.17;;;;;;;;;;5055878;28;20142;-58
2023/09/19 07:26:18;;;;;;;9.65;3.33;;;;;;;;;;5060178;28;20104;-57
2023/09/19 07:28:45;;;;;;;10.38;2.58;;;;;;;;;;5063525;28;20537;-57
2023/09/19 07:31:12;;;;;;;6.03;2.05;;;;;;;;;;5066535;28;20452;-58
2023/09/19 07:33:40;;;;;;;8.45;2.00;;;;;;;;;;5063531;28;20083;-58
2023/09/19 07:36:10;;;;;;;11.23;2.28;;;;;;;;;;5061811;28;20080;-57
2023/09/19 07:38:37;;;;;;;10.85;2.72;;;;;;;;;;5072873;28;20110;-57
2023/09/19 07:41:05;;;;;;;11.98;2.22;;;;;;;;;;5084081;28;20154;-56
2023/09/19 07:43:33;;;;;;;19.35;3.08;;;;;;;;;;5064080;28;20057;-56
2023/09/19 07:46:02;;;;;;;13.75;2.17;;;;;;;;;;5062359;28;20053;-56
2023/09/19 07:48:29;;;;;;;11.45;2.28;;;;;;;;;;5061967;28;20087;-56
2023/09/19 07:50:55;;;;;;;5.95;1.85;;;;;;;;;;5062439;28;20529;-56
2023/09/19 07:53:22;;;;;;;10.10;2.25;;;;;;;;;;5062977;28;20080;-55
2023/09/19 07:55:48;;;;;;;12.85;2.65;;;;;;;;;;5063082;28;20045;-57
2023/09/19 07:58:15;;;;;;;12.25;2.40;;;;;;;;;;5064304;28;20135;-56
2023/09/19 08:00:42;;;;;;;11.77;2.80;;;;;;;;;;5066174;28;20056;-57
2023/09/19 08:03:09;;;;;;;13.00;3.05;;;;;;;;;;5040698;28;20136;-58
2023/09/19 08:05:43;;;;;;;12.70;2.67;;;;;;;;;;5065824;28;20060;-54
2023/09/19 08:08:10;;;;;;;15.32;3.65;;;;;;;;;;5064584;28;20061;-57
2023/09/19 08:10:39;;;;;;;13.68;2.70;;;;;;;;;;5064635;28;20053;-55
2023/09/19 08:13:11;;;;;;;8.25;2.03;;;;;;;;;;5065325;28;20640;-57
2023/09/19 08:15:43;;;;;;;22.38;3.08;;;;;;;;;;5065027;28;20142;-57
2023/09/19 08:18:13;;;;;;;19.25;3.85;;;;;;;;;;5066060;28;20507;-56
2023/09/19 08:20:42;;;;;;;11.88;2.80;;;;;;;;;;5065363;28;20057;-57
2023/09/19 08:23:08;;;;;;;12.48;2.60;;;;;;;;;;5063719;28;20080;-58
2023/09/19 08:25:38;;;;;;;11.82;3.28;;;;;;;;;;5064938;28;20495;-57
2023/09/19 08:28:08;;;;;;;15.07;3.88;;;;;;;;;;5066093;28;20546;-56
2023/09/19 08:30:40;;;;;;;13.10;2.35;;;;;;;;;;5082844;28;20059;-57
2023/09/19 08:33:07;;;;;;;14.35;3.10;;;;;;;;;;5067629;28;20057;-55
2023/09/19 08:35:35;;;;;;;12.80;3.70;;;;;;;;;;5063221;28;20462;-55
2023/09/19 08:38:03;;;;;;;13.38;2.60;;;;;;;;;;5063827;28;20052;-59
2023/09/19 08:40:33;;;;;;;14.13;3.15;;;;;;;;;;5065158;28;20146;-58
2023/09/19 08:43:00;;;;;;;14.43;3.08;;;;;;;;;;5062386;28;20049;-56
2023/09/19 08:45:28;;;;;;;15.93;2.55;;;;;;;;;;5057898;28;20057;-61
2023/09/19 08:48:00;;;;;;;13.73;2.90;;;;;;;;;;5064728;28;20134;-60
2023/09/19 08:50:30;;;;;;;9.57;2.60;;;;;;;;;;5059932;28;20584;-58
2023/09/19 08:53:00;;;;;;;11.05;2.95;;;;;;;;;;5068781;28;20133;-59
2023/09/19 08:55:27;;;;;;;12.90;3.08;;;;;;;;;;5068432;28;20088;-58
2023/09/19 08:58:01;;;;;;;12.65;3.03;;;;;;;;;;5063132;28;20169;-55
2023/09/19 09:00:28;;;;;;;10.02;2.85;;;;;;;;;;5063905;28;20048;-59
2023/09/19 09:02:56;;;;;;;18.20;3.65;;;;;;;;;;5062576;28;20045;-57
2023/09/19 09:05:23;;;;;;;12.27;2.83;;;;;;;;;;5062741;28;20061;-58
2023/09/19 09:07:51;;;;;;;12.48;2.67;;;;;;;;;;5063855;28;20060;-58
2023/09/19 09:10:21;;;;;;;11.48;2.63;;;;;;;;;;5061888;28;20528;-58
2023/09/19 09:12:50;;;;;;;13.23;2.50;;;;;;;;;;5062974;28;20092;-58
2023/09/19 09:15:19;;;;;;;11.20;2.35;;;;;;;;;;5064988;28;20623;-58
2023/09/19 09:17:48;;;;;;;8.95;2.55;;;;;;;;;;5062278;28;20132;-59
2023/09/19 09:20:14;;;;;;;11.65;2.70;;;;;;;;;;5059671;28;20228;-59
2023/09/19 09:22:50;;;;;;;12.05;2.97;;;;;;;;;;5061802;28;20057;-59
2023/09/19 09:25:18;;;;;;;9.93;2.20;;;;;;;;;;5064955;28;20486;-58
2023/09/19 09:27:46;;;;;;;9.75;2.78;;;;;;;;;;5063546;28;20052;-57
2023/09/19 09:30:32;;;;;;;10.73;1.95;;;;;;;;;;5052981;28;20436;-59
2023/09/19 09:33:07;;;;;;;9.65;2.50;;;;;;;;;;5057033;28;20515;-59
2023/09/19 09:35:47;;;;;;;9.32;2.45;;;;;;;;;;5064279;28;20136;-59
2023/09/19 09:38:18;;;;;;;7.75;2.45;;;;;;;;;;5053874;28;20096;-57
2023/09/19 09:41:07;;;;;;;10.35;2.35;;;;;;;;;;5063984;28;20521;-59
2023/09/19 09:43:35;;;;;;;11.05;1.88;;;;;;;;;;5058864;28;20136;-59
2023/09/19 09:49:11;;;;;;;14.65;2.97;;;;;;;;;;5062829;28;20052;-60
2023/09/19 09:51:34;;;;;;;9.75;3.58;;;;;;;;;;5056954;28;20053;-60
2023/09/19 09:54:14;;;;;;;14.25;2.55;;;;;;;;;;5062951;28;20170;-59
2023/09/19 09:56:54;;;;;;;18.58;2.85;;;;;;;;;;5053630;28;20053;-58
2023/09/19 09:59:23;;;;;;;11.30;2.88;;;;;;;;;;5061782;28;20174;-59
2023/09/19 10:01:50;;;;;;;11.65;2.35;;;;;;;;;;5068543;28;20056;-59
2023/09/19 10:04:35;;;;;;;11.27;2.80;;;;;;;;;;5063485;28;20049;-57
2023/09/19 10:07:10;;;;;;;13.43;2.83;;;;;;;;;;5070837;28;20053;-58
2023/09/19 10:09:47;;;;;;;14.43;3.08;;;;;;;;;;5064447;28;20049;-58
2023/09/19 10:12:15;;;;;;;15.90;2.15;;;;;;;;;;5062663;28;20049;-59
2023/09/19 10:14:43;;;;;;;11.48;3.88;;;;;;;;;;5063495;28;20080;-59
2023/09/19 10:17:10;;;;;;;11.70;2.35;;;;;;;;;;5064441;28;20567;-59
2023/09/19 10:19:44;;;;;;;9.27;2.70;;;;;;;;;;5082365;28;20615;-59
2023/09/19 10:22:12;;;;;;;11.68;2.53;;;;;;;;;;5064407;28;20049;-58
2023/09/19 10:24:40;;;;;;;12.90;1.80;;;;;;;;;;5046049;28;20057;-59
2023/09/19 10:27:26;;;;;;;9.18;2.15;;;;;;;;;;5056380;28;20056;-59
2023/09/19 10:29:57;;;;;;;9.65;1.73;;;;;;;;;;5062624;28;20057;-59
2023/09/19 10:32:25;;;;;;;11.25;2.47;;;;;;;;;;5062586;28;20056;-59
2023/09/19 10:34:55;;;;;;;8.02;1.80;;;;;;;;;;5063351;28;20456;-57
2023/09/19 10:37:25;;;;;;;5.05;1.83;;;;;;;;;;5062924;28;20565;-59
2023/09/19 10:39:55;;;;;;;12.75;2.45;;;;;;;;;;5062344;28;20099;-59
2023/09/19 10:42:23;;;;;;;7.47;1.63;;;;;;;;;;5057535;28;20057;-60
2023/09/19 10:44:53;;;;;;;9.38;2.03;;;;;;;;;;5061834;28;20518;-60
2023/09/19 10:47:23;;;;;;;11.18;2.25;;;;;;;;;;5061898;28;20060;-58
2023/09/19 10:49:49;;;;;;;11.98;2.17;;;;;;;;;;5061870;28;20057;-60
2023/09/19 10:52:19;;;;;;;11.60;2.92;;;;;;;;;;5059574;28;20052;-59
2023/09/19 10:54:50;;;;;;;4.28;1.50;;;;;;;;;;5060875;28;20061;-60
2023/09/19 10:57:23;;;;;;;7.40;1.85;;;;;;;;;;5060986;28;20478;-60
2023/09/19 11:00:24;;;;;;;8.38;1.73;;;;;;;;;;5057415;28;20142;-57
2023/09/19 11:03:09;;;;;;;13.35;1.95;;;;;;;;;;5068161;28;20056;-59
2023/09/19 11:05:40;;;;;;;9.13;2.22;;;;;;;;;;5062705;28;20080;-58
2023/09/19 11:08:07;;;;;;;9.75;2.22;;;;;;;;;;5060658;28;20057;-60
2023/09/19 11:10:50;;;;;;;9.63;1.88;;;;;;;;;;5059556;28;20049;-60
2023/09/19 11:13:34;;;;;;;6.53;1.95;;;;;;;;;;5062581;28;20081;-60
2023/09/19 11:16:03;;;;;;;7.30;1.67;;;;;;;;;;5058192;28;20053;-57
2023/09/19 11:18:43;;;;;;;7.93;1.63;;;;;;;;;;5055511;28;20060;-58
2023/09/19 11:21:29;;;;;;;9.82;2.80;;;;;;;;;;5061473;28;20049;-60
2023/09/19 11:24:17;;;;;;;11.43;2.13;;;;;;;;;;5061571;28;20068;-59
2023/09/19 11:26:47;;;;;;;8.32;2.15;;;;;;;;;;5060678;28;20064;-59
2023/09/19 11:29:31;;;;;;;8.07;2.42;;;;;;;;;;5054532;28;20487;-60
2023/09/19 11:31:59;;;;;;;7.72;2.22;;;;;;;;;;5042958;28;20065;-59
2023/09/19 11:34:35;;;;;;;10.77;1.80;;;;;;;;;;5065159;28;20460;-60
2023/09/19 11:37:14;;;;;;;5.38;1.58;;;;;;;;;;5053172;28;20049;-59
2023/09/19 11:40:01;;;;;;;5.10;1.52;;;;;;;;;;5054706;28;20053;-58
2023/09/19 11:42:54;;;;;;;5.10;2.13;;;;;;;;;;5057293;28;20053;-59
2023/09/19 11:45:45;;;;;;;9.05;2.42;;;;;;;;;;5041053;28;20103;-60
2023/09/19 11:48:15;;;;;;;7.15;2.13;;;;;;;;;;5062185;28;21076;-60
2023/09/19 11:50:44;;;;;;;8.98;1.80;;;;;;;;;;5062170;28;20211;-59
2023/09/19 11:53:15;;;;;;;5.68;1.48;;;;;;;;;;5061393;28;20064;-60
2023/09/19 11:55:43;;;;;;;9.55;1.85;;;;;;;;;;5061697;28;20121;-60
2023/09/19 11:58:09;;;;;;;8.75;1.75;;;;;;;;;;5060540;28;20057;-60
2023/09/19 12:00:38;;;;;;;6.53;1.52;;;;;;;;;;5062668;28;20339;-59
2023/09/19 12:03:09;;;;;;;10.05;1.45;;;;;;;;;;5059889;28;20578;-60
2023/09/19 12:05:37;;;;;;;12.38;1.63;;;;;;;;;;5060209;28;20056;-59
2023/09/19 12:08:08;;;;;;;9.07;1.83;;;;;;;;;;5056040;28;20960;-59
2023/09/19 12:10:45;;;;;;;4.18;1.50;;;;;;;;;;5072673;28;20045;-61
2023/09/19 12:13:15;;;;;;;5.13;1.55;;;;;;;;;;5051539;28;20067;-60
2023/09/19 12:15:45;;;;;;;7.65;1.50;;;;;;;;;;5060155;28;20053;-60
2023/09/19 12:18:30;;;;;;;5.00;1.15;;;;;;;;;;5059351;28;20556;-60
2023/09/19 12:20:58;;;;;;;5.47;1.35;;;;;;;;;;5060073;28;20089;-58
2023/09/19 12:23:27;;;;;;;6.93;1.20;;;;;;;;;;5060152;28;20053;-60
2023/09/19 12:25:56;;;;;;;5.47;1.48;;;;;;;;;;5060607;28;20581;-60
2023/09/19 12:28:26;;;;;;;4.50;1.52;;;;;;;;;;5060090;28;20256;-60
2023/09/19 12:30:55;;;;;;;4.38;1.08;;;;;;;;;;5060109;28;20056;-60
2023/09/19 12:33:26;;;;;;;7.30;1.45;;;;;;;;;;5061272;28;20431;-60
2023/09/19 12:35:53;;;;;;;3.60;1.13;;;;;;;;;;5060211;28;20520;-60
2023/09/19 12:38:28;;;;;;;6.05;1.98;;;;;;;;;;5059178;28;20142;-59
2023/09/19 12:40:55;;;;;;;4.78;1.23;;;;;;;;;;5059509;28;20061;-59
2023/09/19 12:43:22;;;;;;;7.40;1.35;;;;;;;;;;5058470;28;20053;-59
2023/09/19 12:45:49;;;;;;;7.25;1.83;;;;;;;;;;5063394;28;20126;-59
2023/09/19 12:48:31;;;;;;;5.28;1.33;;;;;;;;;;5062528;28;20849;-60
2023/09/19 12:51:11;;;;;;;5.95;1.20;;;;;;;;;;5063221;28;20055;-59
2023/09/19 12:53:43;;;;;;;6.50;1.63;;;;;;;;;;5066450;28;21027;-60
2023/09/19 12:56:12;;;;;;;4.32;1.20;;;;;;;;;;5065330;28;20072;-60
2023/09/19 12:58:53;;;;;;;3.78;1.20;;;;;;;;;;5062871;28;20065;-60
2023/09/19 13:01:22;;;;;;;4.30;1.15;;;;;;;;;;5065237;28;20063;-60
2023/09/19 13:04:08;;;;;;;5.30;1.10;;;;;;;;;;5062630;28;20132;-60
2023/09/19 13:06:38;;;;;;;8.57;1.30;;;;;;;;;;5079043;28;20136;-60
2023/09/19 13:09:09;;;;;;;6.40;1.35;;;;;;;;;;5075893;28;20108;-61
2023/09/19 13:11:38;;;;;;;5.57;1.40;;;;;;;;;;5079472;28;20602;-59
2023/09/19 13:14:18;;;;;;;7.13;1.67;;;;;;;;;;5063696;28;20140;-57
2023/09/19 13:17:03;;;;;;;5.00;1.55;;;;;;;;;;5056716;28;20152;-61
2023/09/19 13:19:30;;;;;;;;;;;;;;;;;;5063333;28;20049;-60
2023/09/19 13:21:57;;;;;;;7.03;1.30;;;;;;;;;;5063181;28;46455;-60
2023/09/19 13:24:29;;;;;;;4.93;1.48;;;;;;;;;;5061744;28;20057;-59
2023/09/19 13:26:56;;;;;;;4.13;1.17;;;;;;;;;;5064376;28;20110;-60
2023/09/19 13:29:23;;;;;;;2.00;1.20;;;;;;;;;;5058414;28;20057;-61
2023/09/19 13:31:53;;;;;;;4.93;1.27;;;;;;;;;;5057713;28;20099;-59
2023/09/19 13:34:20;;;;;;;6.95;1.45;;;;;;;;;;5064081;28;20061;-59
2023/09/19 13:36:49;;;;;;;4.88;1.60;;;;;;;;;;5064254;28;20491;-59
2023/09/19 13:39:16;;;;;;;5.40;1.67;;;;;;;;;;5060886;28;20053;-59
2023/09/19 13:41:47;;;;;;;2.25;1.30;;;;;;;;;;5063235;28;20524;-60
2023/09/19 13:44:14;;;;;;;21.63;1.52;;;;;;;;;;5068306;28;20052;-60
2023/09/19 13:46:45;;;;;;;4.55;1.20;;;;;;;;;;5065344;28;20053;-60
2023/09/19 13:49:12;;;;;;;4.60;1.13;;;;;;;;;;5062918;28;20531;-59
2023/09/19 13:51:38;;;;;;;5.57;1.38;;;;;;;;;;5062569;28;20100;-58
2023/09/19 13:54:05;;;;;;;4.35;1.30;;;;;;;;;;5062900;28;20499;-60
2023/09/19 13:56:33;;;;;;;4.47;1.50;;;;;;;;;;5063368;28;20059;-59
2023/09/19 13:59:00;;;;;;;8.52;1.15;;;;;;;;;;5063179;28;20119;-59
2023/09/19 14:01:27;;;;;;;2.88;1.27;;;;;;;;;;5065102;28;20056;-60
2023/09/19 14:03:55;;;;;;;4.10;1.13;;;;;;;;;;5062886;28;20249;-59
2023/09/19 14:06:22;;;;;;;3.70;1.50;;;;;;;;;;5060251;28;20425;-60
2023/09/19 14:08:49;;;;;;;4.55;1.02;;;;;;;;;;5062279;28;20130;-60
2023/09/19 14:11:16;;;;;;;5.10;1.02;;;;;;;;;;5062119;28;20191;-60
2023/09/19 14:13:48;;;;;;;3.25;1.52;;;;;;;;;;5060365;28;20531;-59
2023/09/19 14:16:16;;;;;;;3.42;1.00;;;;;;;;;;5063296;28;20056;-60
2023/09/19 14:18:45;;;;;;;3.75;0.88;;;;;;;;;;5063064;28;20056;-60
2023/09/19 14:21:12;;;;;;;3.83;1.25;;;;;;;;;;5070840;28;20141;-65
2023/09/19 14:23:38;;;;;;;2.50;1.10;;;;;;;;;;5061855;28;20073;-60
2023/09/19 14:26:05;;;;;;;7.47;2.00;;;;;;;;;;5066780;28;20064;-60
2023/09/19 14:28:33;;;;;;;3.45;1.02;;;;;;;;;;5064026;28;20079;-58
2023/09/19 14:31:19;;;;;;;2.78;1.05;;;;;;;;;;5063094;28;20060;-59
2023/09/19 14:33:52;;;;;;;6.18;1.40;;;;;;;;;;5056831;28;20127;-59
2023/09/19 14:36:19;;;;;;;7.90;1.58;;;;;;;;;;5063002;28;20111;-60
2023/09/19 14:38:45;;;;;;;14.05;2.10;;;;;;;;;;5060624;28;20192;-60
2023/09/19 14:41:12;;;;;;;6.57;1.98;;;;;;;;;;5061717;28;20049;-61
2023/09/19 14:43:39;;;;;;;8.00;1.67;;;;;;;;;;5058192;28;20045;-60
2023/09/19 14:46:07;;;;;;;6.40;1.33;;;;;;;;;;5084229;28;20048;-59
2023/09/19 14:48:35;;;;;;;4.20;1.50;;;;;;;;;;5073313;28;20062;-57
2023/09/19 14:51:05;;;;;;;6.10;1.95;;;;;;;;;;5071430;28;20522;-59
2023/09/19 14:53:32;;;;;;;2.85;1.65;;;;;;;;;;5063123;28;20130;-61
2023/09/19 14:56:05;;;;;;;5.32;1.80;;;;;;;;;;5053703;28;20152;-59